createdAt,value
2018-08-10T00:00:09.496Z,5.63
2018-08-10T00:02:38.256Z,5.47
2018-08-10T00:05:07.500Z,5.13
2018-08-10T00:07:36.274Z,5.60
2018-08-10T00:10:05.336Z,5.43
2018-08-10T00:12:33.759Z,4.97
2018-08-10T00:15:02.191Z,4.80
2018-08-10T00:17:30.605Z,5.47
2018-08-10T00:19:59.012Z,5.67
2018-08-10T00:22:27.426Z,5.17
2018-08-10T00:24:55.844Z,5.97
2018-08-10T00:27:24.515Z,5.70
2018-08-10T00:29:52.937Z,6.20
2018-08-10T00:32:21.348Z,6.13
2018-08-10T00:34:49.767Z,6.47
2018-08-10T00:37:18.194Z,7.23
2018-08-10T00:39:46.632Z,6.70
2018-08-10T00:42:15.048Z,7.10
2018-08-10T00:44:43.477Z,6.73
2018-08-10T00:47:12.121Z,7.30
2018-08-10T00:49:40.627Z,6.50
2018-08-10T00:52:09.041Z,6.20
2018-08-10T00:54:37.450Z,5.93
2018-08-10T00:57:05.876Z,6.13
2018-08-10T00:59:34.528Z,6.53
2018-08-10T01:02:03.028Z,6.30
2018-08-10T01:04:31.456Z,5.60
2018-08-10T01:07:14.341Z,6.53
2018-08-10T01:09:42.756Z,6.20
2018-08-10T01:12:11.159Z,6.27
2018-08-10T01:14:39.594Z,6.60
2018-08-10T01:17:08.268Z,6.60
2018-08-10T01:19:36.775Z,6.00
2018-08-10T01:22:05.664Z,6.33
2018-08-10T01:24:34.071Z,6.50
2018-08-10T01:27:02.512Z,6.93
2018-08-10T01:29:30.936Z,6.10
2018-08-10T01:31:59.347Z,6.90
2018-08-10T01:34:27.765Z,6.43
2018-08-10T01:36:56.162Z,6.13
2018-08-10T01:39:24.579Z,6.00
2018-08-10T01:41:53.004Z,5.67
2018-08-10T01:44:21.412Z,6.87
2018-08-10T01:46:49.832Z,6.60
2018-08-10T01:49:18.467Z,6.73
2018-08-10T01:51:46.980Z,6.97
2018-08-10T01:54:15.404Z,7.10
2018-08-10T01:56:43.803Z,6.60
2018-08-10T01:59:12.447Z,6.70
2018-08-10T02:01:40.972Z,6.43
2018-08-10T02:04:09.384Z,6.30
2018-08-10T02:06:37.803Z,5.80
2018-08-10T02:09:07.913Z,5.40
2018-08-10T02:11:36.629Z,6.40
2018-08-10T02:14:05.375Z,5.87
2018-08-10T02:16:33.788Z,6.10
2018-08-10T02:19:02.430Z,5.83
2018-08-10T02:21:30.924Z,5.83
2018-08-10T02:23:59.341Z,5.73
2018-08-10T02:26:27.751Z,5.30
2018-08-10T02:28:56.392Z,5.27
2018-08-10T02:31:24.913Z,4.97
2018-08-10T02:33:53.320Z,4.67
2018-08-10T02:36:21.745Z,4.47
2018-08-10T02:38:50.394Z,4.70
2018-08-10T02:41:18.897Z,4.43
2018-08-10T02:43:47.324Z,4.80
2018-08-10T02:46:15.744Z,4.20
2018-08-10T02:48:44.380Z,3.87
2018-08-10T02:51:12.871Z,3.77
2018-08-10T02:53:41.306Z,3.80
2018-08-10T02:56:09.685Z,3.60
2018-08-10T02:58:38.300Z,3.47
2018-08-10T03:01:06.832Z,3.23
2018-08-10T03:03:35.233Z,3.30
2018-08-10T03:06:03.644Z,3.37
2018-08-10T03:08:32.060Z,2.77
2018-08-10T03:11:00.480Z,3.10
2018-08-10T03:13:28.907Z,3.13
2018-08-10T03:15:57.331Z,3.00
2018-08-10T03:18:25.743Z,2.80
2018-08-10T03:20:54.390Z,2.80
2018-08-10T03:23:22.900Z,2.57
2018-08-10T03:25:51.328Z,2.90
2018-08-10T03:28:19.733Z,2.20
2018-08-10T03:30:48.389Z,2.30
2018-08-10T03:33:16.908Z,2.30
2018-08-10T03:35:45.315Z,2.37
2018-08-10T03:38:13.736Z,2.90
2018-08-10T03:40:42.356Z,2.60
2018-08-10T03:43:10.870Z,2.20
2018-08-10T03:45:39.316Z,2.60
2018-08-10T03:48:07.744Z,2.63
2018-08-10T03:50:36.408Z,2.20
2018-08-10T03:53:05.127Z,2.00
2018-08-10T03:55:33.506Z,2.13
2018-08-10T03:58:01.875Z,2.00
2018-08-10T04:00:30.480Z,2.10
2018-08-10T04:02:58.939Z,1.87
2018-08-10T04:05:27.310Z,1.90
2018-08-10T04:07:55.699Z,1.93
2018-08-10T04:10:24.287Z,1.80
2018-08-10T04:12:52.750Z,1.73
2018-08-10T04:15:21.144Z,1.57
2018-08-10T04:17:49.525Z,1.83
2018-08-10T04:20:17.895Z,1.77
2018-08-10T04:22:46.496Z,2.43
2018-08-10T04:25:14.950Z,1.77
2018-08-10T04:27:43.327Z,1.60
2018-08-10T04:30:11.960Z,1.43
2018-08-10T04:32:40.564Z,1.77
2018-08-10T04:35:09.438Z,1.93
2018-08-10T04:37:37.833Z,1.70
2018-08-10T04:40:07.198Z,1.63
2018-08-10T04:42:35.570Z,1.70
2018-08-10T04:45:04.246Z,1.37
2018-08-10T04:47:32.644Z,1.60
2018-08-10T04:50:01.235Z,1.60
2018-08-10T04:52:29.723Z,1.50
2018-08-10T04:54:58.112Z,1.90
2018-08-10T04:57:26.480Z,1.60
2018-08-10T04:59:54.875Z,1.40
2018-08-10T05:02:23.473Z,1.20
2018-08-10T05:04:51.935Z,1.43
2018-08-10T05:07:20.324Z,1.60
2018-08-10T05:09:48.708Z,1.60
2018-08-10T05:12:17.071Z,1.80
2018-08-10T05:14:45.456Z,1.80
2018-08-10T05:17:13.818Z,2.20
2018-08-10T05:19:42.437Z,1.50
2018-08-10T05:22:10.906Z,1.40
2018-08-10T05:24:39.274Z,1.77
2018-08-10T05:27:07.651Z,1.93
2018-08-10T05:29:36.261Z,1.97
2018-08-10T05:32:04.731Z,1.80
2018-08-10T05:34:33.103Z,1.40
2018-08-10T05:37:01.501Z,1.47
2018-08-10T05:39:29.880Z,1.60
2018-08-10T05:41:58.475Z,1.93
2018-08-10T05:44:26.962Z,1.83
2018-08-10T05:46:55.360Z,1.47
2018-08-10T05:49:23.919Z,1.87
2018-08-10T05:51:52.519Z,1.80
2018-08-10T05:54:20.987Z,1.60
2018-08-10T05:56:49.364Z,1.50
2018-08-10T05:59:17.755Z,1.50
2018-08-10T06:01:46.144Z,1.60
2018-08-10T06:04:14.728Z,1.80
2018-08-10T06:06:43.199Z,1.93
2018-08-10T06:09:13.511Z,1.90
2018-08-10T06:11:42.830Z,1.70
2018-08-10T06:14:11.685Z,1.40
2018-08-10T06:16:40.070Z,1.60
2018-08-10T06:19:13.451Z,1.50
2018-08-10T06:21:41.884Z,1.70
2018-08-10T06:24:10.193Z,2.00
2018-08-10T06:26:38.591Z,1.50
2018-08-10T06:29:07.193Z,1.90
2018-08-10T06:31:35.725Z,1.73
2018-08-10T06:34:04.218Z,1.70
2018-08-10T06:36:32.568Z,1.33
2018-08-10T06:39:01.237Z,1.53
2018-08-10T06:41:29.758Z,1.60
2018-08-10T06:43:58.167Z,1.40
2018-08-10T06:46:26.593Z,1.60
2018-08-10T06:48:55.264Z,1.30
2018-08-10T06:51:23.798Z,1.60
2018-08-10T06:53:52.223Z,1.60
2018-08-10T06:56:20.864Z,1.40
2018-08-10T06:58:49.364Z,1.80
2018-08-10T07:01:17.771Z,1.83
2018-08-10T07:03:46.222Z,1.27
2018-08-10T07:06:14.850Z,1.80
2018-08-10T07:08:43.362Z,1.30
2018-08-10T07:11:11.807Z,1.23
2018-08-10T07:13:40.290Z,1.57
2018-08-10T07:16:08.664Z,1.80
2018-08-10T07:18:37.309Z,1.70
2018-08-10T07:21:05.832Z,1.80
2018-08-10T07:23:34.260Z,2.00
2018-08-10T07:26:02.935Z,1.63
2018-08-10T07:28:31.444Z,1.67
2018-08-10T07:30:59.876Z,1.33
2018-08-10T07:33:28.317Z,1.70
2018-08-10T07:35:56.957Z,1.90
2018-08-10T07:38:25.499Z,1.30
2018-08-10T07:40:53.899Z,1.43
2018-08-10T07:43:22.336Z,1.57
2018-08-10T07:45:50.980Z,1.10
2018-08-10T07:48:19.508Z,1.40
2018-08-10T07:50:47.925Z,1.20
2018-08-10T07:53:16.594Z,1.60
2018-08-10T07:55:45.121Z,1.30
2018-08-10T07:58:13.533Z,1.47
2018-08-10T08:00:41.985Z,1.40
2018-08-10T08:03:10.734Z,1.23
2018-08-10T08:05:39.167Z,1.23
2018-08-10T08:08:07.611Z,1.40
2018-08-10T08:10:36.093Z,1.10
2018-08-10T08:13:04.706Z,1.40
2018-08-10T08:15:33.239Z,1.67
2018-08-10T08:18:01.694Z,1.30
2018-08-10T08:20:30.093Z,1.60
2018-08-10T08:23:00.022Z,1.60
2018-08-10T08:25:28.528Z,1.57
2018-08-10T08:27:57.210Z,1.37
2018-08-10T08:30:25.733Z,1.53
2018-08-10T08:32:54.169Z,1.17
2018-08-10T08:35:22.844Z,1.70
2018-08-10T08:37:51.365Z,1.83
2018-08-10T08:40:22.408Z,1.53
2018-08-10T08:42:50.906Z,1.70
2018-08-10T08:45:51.252Z,1.67
2018-08-10T08:48:19.872Z,1.83
2018-08-10T08:50:51.025Z,2.00
2018-08-10T08:53:19.833Z,1.30
2018-08-10T08:55:49.505Z,1.67
2018-08-10T08:58:18.019Z,1.70
2018-08-10T09:00:46.692Z,1.87
2018-08-10T09:04:53.008Z,1.80
2018-08-10T09:07:21.576Z,2.87
2018-08-10T09:09:49.973Z,2.07
2018-08-10T09:12:18.682Z,1.80
2018-08-10T09:14:53.298Z,1.80
2018-08-10T09:17:22.200Z,2.83
2018-08-10T09:19:50.633Z,1.93
2018-08-10T09:22:19.092Z,2.50
2018-08-10T09:24:47.790Z,1.70
2018-08-10T09:27:16.303Z,1.90
2018-08-10T09:29:44.748Z,1.60
2018-08-10T09:32:13.205Z,1.60
2018-08-10T09:34:41.891Z,1.50
2018-08-10T09:37:10.529Z,1.70
2018-08-10T09:39:38.964Z,1.80
2018-08-10T09:42:07.463Z,1.70
2018-08-10T09:44:35.949Z,1.40
2018-08-10T09:47:04.820Z,1.30
2018-08-10T09:49:38.874Z,1.60
2018-08-10T09:52:07.614Z,1.60
2018-08-10T09:54:41.801Z,1.70
2018-08-10T09:57:10.237Z,1.40
2018-08-10T09:59:38.706Z,1.83
2018-08-10T10:02:09.329Z,1.40
2018-08-10T10:04:37.766Z,1.40
2018-08-10T10:07:06.204Z,1.50
2018-08-10T10:09:34.678Z,1.57
2018-08-10T10:12:03.104Z,1.80
2018-08-10T10:14:31.786Z,2.00
2018-08-10T10:17:00.346Z,1.60
2018-08-10T10:19:28.802Z,1.37
2018-08-10T10:21:57.227Z,1.90
2018-08-10T10:24:25.918Z,1.70
2018-08-10T10:26:54.463Z,1.30
2018-08-10T10:29:22.924Z,1.50
2018-08-10T10:31:51.604Z,1.50
2018-08-10T10:34:20.141Z,1.37
2018-08-10T10:36:48.566Z,1.40
2018-08-10T10:39:17.851Z,1.40
2018-08-10T10:41:46.681Z,1.60
2018-08-10T10:44:15.235Z,1.60
2018-08-10T10:46:43.707Z,1.53
2018-08-10T10:49:12.181Z,1.30
2018-08-10T10:51:40.637Z,1.40
2018-08-10T10:54:09.122Z,1.20
2018-08-10T10:56:37.719Z,1.20
2018-08-10T10:59:06.100Z,1.50
2018-08-10T11:01:34.549Z,1.57
2018-08-10T11:04:02.972Z,1.40
2018-08-10T11:06:31.441Z,1.43
2018-08-10T11:08:59.901Z,1.57
2018-08-10T11:11:28.549Z,1.50
2018-08-10T11:13:57.053Z,1.50
2018-08-10T11:16:25.501Z,1.60
2018-08-10T11:18:53.929Z,1.23
2018-08-10T11:21:22.610Z,1.97
2018-08-10T11:23:51.153Z,1.27
2018-08-10T11:26:19.591Z,1.20
2018-08-10T11:28:48.014Z,1.40
2018-08-10T11:31:16.440Z,1.60
2018-08-10T11:33:44.869Z,1.60
2018-08-10T11:36:13.295Z,1.60
2018-08-10T11:38:41.745Z,1.57
2018-08-10T11:41:10.181Z,2.27
2018-08-10T11:43:38.865Z,1.50
2018-08-10T11:46:07.432Z,1.50
2018-08-10T11:48:35.840Z,1.97
2018-08-10T11:51:04.271Z,1.50
2018-08-10T11:53:32.714Z,1.50
2018-08-10T11:56:01.127Z,1.50
2018-08-10T11:58:29.570Z,1.60
2018-08-10T12:00:58.018Z,1.77
2018-08-10T12:03:26.673Z,1.70
2018-08-10T12:05:55.274Z,1.87
2018-08-10T12:08:23.677Z,1.80
2018-08-10T12:10:52.135Z,1.70
2018-08-10T12:16:03.590Z,1.50
2018-08-10T12:18:32.021Z,1.83
2018-08-10T12:21:00.607Z,1.90
2018-08-10T12:23:29.081Z,1.57
2018-08-10T12:25:57.873Z,1.53
2018-08-10T12:28:26.358Z,1.70
2018-08-10T12:30:54.847Z,1.87
2018-08-10T12:33:23.294Z,2.00
2018-08-10T12:35:51.807Z,1.53
2018-08-10T12:38:20.238Z,2.00
2018-08-10T12:40:48.807Z,1.83
2018-08-10T12:43:17.244Z,1.70
2018-08-10T12:45:45.991Z,1.83
2018-08-10T12:48:14.561Z,2.00
2018-08-10T12:50:43.113Z,1.90
2018-08-10T12:53:11.495Z,2.20
2018-08-10T12:55:39.942Z,1.90
2018-08-10T12:58:08.369Z,1.90
2018-08-10T13:00:37.072Z,1.80
2018-08-10T13:03:06.529Z,2.13
2018-08-10T13:05:35.043Z,1.72
2018-08-10T13:08:03.496Z,1.60
2018-08-10T13:10:32.100Z,1.70
2018-08-10T13:13:00.526Z,1.50
2018-08-10T13:15:28.970Z,2.12
2018-08-10T13:17:57.836Z,1.92
2018-08-10T13:20:26.782Z,1.85
2018-08-10T13:22:55.493Z,1.62
2018-08-10T13:25:23.958Z,2.20
2018-08-10T13:27:52.417Z,1.82
2018-08-10T13:30:20.977Z,1.90
2018-08-10T13:32:49.395Z,1.90
2018-08-10T13:35:17.829Z,1.73
2018-08-10T13:37:46.317Z,1.90
2018-08-10T13:40:14.724Z,1.90
2018-08-10T13:42:43.154Z,2.20
2018-08-10T13:45:12.464Z,2.00
2018-08-10T13:47:41.261Z,1.80
2018-08-10T13:50:10.828Z,1.70
2018-08-10T13:52:39.522Z,1.87
2018-08-10T13:55:09.180Z,1.90
2018-08-10T13:57:38.019Z,1.83
2018-08-10T14:00:06.928Z,1.57
2018-08-10T14:02:35.378Z,1.83
2018-08-10T14:05:04.354Z,1.93
2018-08-10T14:07:33.141Z,2.17
2018-08-10T14:10:01.693Z,1.80
2018-08-10T14:12:30.186Z,2.00
2018-08-10T14:14:58.643Z,1.53
2018-08-10T14:17:27.109Z,1.67
2018-08-10T14:19:55.721Z,1.70
2018-08-10T14:22:24.229Z,1.90
2018-08-10T14:24:52.691Z,1.80
2018-08-10T14:27:21.168Z,1.60
2018-08-10T14:29:49.653Z,1.70
2018-08-10T14:32:18.112Z,2.07
2018-08-10T14:34:46.548Z,2.00
2018-08-10T14:37:15.050Z,1.70
2018-08-10T14:39:43.487Z,1.97
2018-08-10T14:42:11.924Z,1.90
2018-08-10T14:44:40.371Z,1.80
2018-08-10T14:47:08.827Z,1.60
2018-08-10T14:49:37.297Z,1.90
2018-08-10T14:52:05.757Z,1.60
2018-08-10T14:54:34.236Z,1.90
2018-08-10T14:57:02.662Z,1.60
2018-08-10T14:59:31.123Z,1.83
2018-08-10T15:01:59.812Z,1.77
2018-08-10T15:04:28.631Z,1.80
2018-08-10T15:06:57.191Z,1.80
2018-08-10T15:09:25.659Z,1.60
2018-08-10T15:11:54.310Z,1.63
2018-08-10T15:14:22.729Z,1.73
2018-08-10T15:16:51.173Z,2.30
2018-08-10T15:19:19.612Z,2.50
2018-08-10T15:21:48.097Z,2.30
2018-08-10T15:24:16.542Z,2.60
2018-08-10T15:26:45.000Z,2.20
2018-08-10T15:29:13.445Z,2.60
2018-08-10T15:31:41.872Z,2.70
2018-08-10T15:34:10.286Z,2.17
2018-08-10T15:36:38.771Z,2.40
2018-08-10T15:39:12.223Z,2.50
2018-08-10T15:41:40.942Z,2.10
2018-08-10T15:44:09.455Z,1.87
2018-08-10T15:46:37.879Z,2.00
2018-08-10T15:49:06.573Z,2.20
2018-08-10T15:51:34.969Z,2.30
2018-08-10T15:54:03.713Z,2.70
2018-08-10T15:56:32.269Z,2.50
2018-08-10T15:59:00.696Z,2.57
2018-08-10T16:01:29.278Z,2.60
2018-08-10T16:03:57.695Z,2.17
2018-08-10T16:06:26.218Z,2.00
2018-08-10T16:08:54.662Z,2.10
2018-08-10T16:11:23.341Z,1.90
2018-08-10T16:13:51.844Z,2.00
2018-08-10T16:16:20.433Z,3.00
2018-08-10T16:18:48.869Z,3.33
2018-08-10T16:21:17.448Z,3.43
2018-08-10T16:23:45.813Z,3.33
2018-08-10T16:26:14.236Z,3.00
2018-08-10T16:28:42.679Z,3.30
2018-08-10T16:31:11.180Z,3.07
2018-08-10T16:33:39.620Z,3.30
2018-08-10T16:36:08.054Z,2.80
2018-08-10T16:38:36.441Z,3.13
2018-08-10T16:41:04.932Z,2.90
2018-08-10T16:43:33.344Z,2.80
2018-08-10T16:46:01.774Z,3.17
2018-08-10T16:48:30.183Z,2.70
2018-08-10T16:50:59.692Z,2.90
2018-08-10T16:53:28.223Z,2.70
2018-08-10T16:55:56.635Z,2.40
2018-08-10T16:58:25.064Z,2.60
2018-08-10T17:00:53.477Z,2.50
2018-08-10T17:03:21.924Z,2.50
2018-08-10T17:05:50.337Z,3.10
2018-08-10T17:08:18.824Z,2.30
2018-08-10T17:10:47.264Z,2.70
2018-08-10T17:13:16.005Z,2.60
2018-08-10T17:15:44.730Z,2.30
2018-08-10T17:18:16.177Z,2.23
2018-08-10T17:20:44.915Z,2.20
2018-08-10T17:23:17.360Z,2.03
2018-08-10T17:25:47.939Z,2.30
2018-08-10T17:28:17.238Z,2.40
2018-08-10T17:30:46.291Z,2.50
2018-08-10T17:33:14.760Z,2.20
2018-08-10T17:35:43.169Z,2.23
2018-08-10T17:38:11.871Z,2.10
2018-08-10T17:40:40.465Z,2.40
2018-08-10T17:43:08.925Z,2.17
2018-08-10T17:45:37.429Z,2.20
2018-08-10T17:48:06.424Z,2.00
2018-08-10T17:50:45.244Z,2.20
2018-08-10T17:53:13.672Z,1.93
2018-08-10T17:55:42.076Z,2.00
2018-08-10T17:58:10.536Z,2.30
2018-08-10T18:00:39.055Z,2.10
2018-08-10T18:03:07.508Z,2.00
2018-08-10T18:05:35.940Z,2.13
2018-08-10T18:08:04.504Z,2.70
2018-08-10T18:10:33.000Z,2.47
2018-08-10T18:13:01.435Z,2.30
2018-08-10T18:15:29.843Z,2.60
2018-08-10T18:17:58.292Z,2.13
2018-08-10T18:21:56.199Z,2.30
2018-08-10T18:24:24.632Z,1.90
2018-08-10T18:26:53.260Z,2.20
2018-08-10T18:29:21.876Z,2.13
2018-08-10T18:31:50.300Z,2.10
2018-08-10T18:34:18.965Z,2.10
2018-08-10T18:36:47.482Z,2.20
2018-08-10T18:39:15.901Z,2.30
2018-08-10T18:41:44.330Z,3.00
2018-08-10T18:44:12.824Z,3.00
2018-08-10T18:46:41.413Z,2.67
2018-08-10T18:49:10.143Z,2.63
2018-08-10T18:51:38.870Z,3.27
2018-08-10T18:54:07.301Z,4.03
2018-08-10T18:56:36.090Z,4.23
2018-08-10T18:59:04.556Z,4.73
2018-08-10T19:01:33.221Z,4.10
2018-08-10T19:04:01.966Z,3.83
2018-08-10T19:06:30.406Z,4.10
2018-08-10T19:08:58.849Z,3.27
2018-08-10T19:11:27.345Z,3.67
2018-08-10T19:13:55.900Z,3.17
2018-08-10T19:16:24.626Z,3.57
2018-08-10T19:18:53.178Z,2.70
2018-08-10T19:21:22.015Z,2.80
2018-08-10T19:23:51.184Z,3.10
2018-08-10T19:26:19.596Z,3.03
2018-08-10T19:28:48.032Z,2.53
2018-08-10T19:31:16.481Z,2.70
2018-08-10T19:33:50.291Z,3.10
2018-08-10T19:36:18.710Z,3.00
2018-08-10T19:38:47.259Z,2.97
2018-08-10T19:41:21.113Z,2.87
2018-08-10T19:43:49.687Z,2.70
2018-08-10T19:46:18.087Z,2.70
2018-08-10T19:48:46.699Z,2.50
2018-08-10T19:51:15.455Z,3.00
2018-08-10T19:53:44.124Z,2.90
2018-08-10T19:56:12.828Z,3.00
2018-08-10T19:58:41.266Z,3.53
2018-08-10T20:01:09.993Z,3.23
2018-08-10T20:03:38.407Z,3.50
2018-08-10T20:06:07.248Z,3.30
2018-08-10T20:08:35.870Z,3.63
2018-08-10T20:11:04.530Z,3.70
2018-08-10T20:13:32.985Z,3.63
2018-08-10T20:16:01.514Z,3.40
2018-08-10T20:18:29.846Z,3.23
2018-08-10T20:20:58.253Z,3.30
2018-08-10T20:23:26.682Z,3.37
2018-08-10T20:25:55.107Z,3.57
2018-08-10T20:28:23.798Z,3.30
2018-08-10T20:30:52.285Z,2.93
2018-08-10T20:33:20.712Z,2.93
2018-08-10T20:35:49.447Z,2.63
2018-08-10T20:38:18.002Z,3.20
2018-08-10T20:40:46.456Z,3.63
2018-08-10T20:43:14.976Z,3.00
2018-08-10T20:45:43.722Z,3.60
2018-08-10T20:48:12.414Z,3.40
2018-08-10T20:50:46.468Z,4.10
2018-08-10T20:53:15.039Z,3.90
2018-08-10T20:55:43.909Z,3.30
2018-08-10T20:58:12.362Z,3.67
2018-08-10T21:00:40.796Z,3.90
2018-08-10T21:03:09.203Z,3.37
2018-08-10T21:05:38.007Z,4.13
2018-08-10T21:08:06.692Z,3.57
2018-08-10T21:10:35.129Z,4.17
2018-08-10T21:13:03.561Z,3.80
2018-08-10T21:15:32.007Z,3.67
2018-08-10T21:18:00.426Z,3.70
2018-08-10T21:20:29.057Z,3.20
2018-08-10T21:22:57.805Z,3.10
2018-08-10T21:25:26.305Z,3.40
2018-08-10T21:27:54.940Z,3.40
2018-08-10T21:30:23.672Z,3.07
2018-08-10T21:32:52.175Z,3.50
2018-08-10T21:35:20.587Z,3.33
2018-08-10T21:37:49.293Z,3.53
2018-08-10T21:40:17.870Z,3.50
2018-08-10T21:42:46.291Z,3.50
2018-08-10T21:45:14.715Z,3.17
2018-08-10T21:47:43.145Z,3.03
2018-08-10T21:50:13.249Z,3.70
2018-08-10T21:52:42.706Z,3.23
2018-08-10T21:55:11.840Z,3.03
2018-08-10T21:57:40.551Z,3.00
2018-08-10T22:00:16.988Z,2.90
2018-08-10T22:02:45.492Z,3.40
2018-08-10T22:05:14.129Z,3.40
2018-08-10T22:07:42.676Z,3.33
2018-08-10T22:10:11.435Z,3.20
2018-08-10T22:12:45.449Z,3.60
2018-08-10T22:15:19.688Z,3.10
2018-08-10T22:17:53.836Z,2.70
2018-08-10T22:20:22.265Z,3.53
2018-08-10T22:22:50.667Z,3.60
2018-08-10T22:25:19.326Z,3.67
2018-08-10T22:27:48.068Z,3.20
2018-08-10T22:30:16.601Z,3.37
2018-08-10T22:32:45.261Z,3.20
2018-08-10T22:35:13.752Z,3.63
2018-08-10T22:37:42.162Z,3.40
2018-08-10T22:40:10.623Z,2.93
2018-08-10T22:42:39.277Z,3.17
2018-08-10T22:45:07.999Z,3.20
2018-08-10T22:47:36.512Z,3.50
2018-08-10T22:50:05.801Z,3.20
2018-08-10T22:52:34.477Z,3.20
2018-08-10T22:55:02.996Z,3.33
2018-08-10T22:57:31.429Z,3.40
2018-08-10T23:00:00.110Z,3.40
2018-08-10T23:02:28.623Z,3.60
2018-08-10T23:04:57.273Z,3.30
2018-08-10T23:07:26.004Z,3.00
2018-08-10T23:09:54.561Z,3.60
2018-08-10T23:12:23.200Z,3.87
2018-08-10T23:14:51.944Z,3.40
2018-08-10T23:17:20.468Z,3.60
2018-08-10T23:19:49.154Z,3.07
2018-08-10T23:22:17.682Z,3.10
2018-08-10T23:24:46.115Z,3.60
2018-08-10T23:27:14.523Z,2.90
2018-08-10T23:29:43.176Z,3.40
2018-08-10T23:32:11.909Z,3.17
2018-08-10T23:34:40.432Z,3.30
2018-08-10T23:37:08.837Z,3.17
2018-08-10T23:39:37.546Z,2.83
2018-08-10T23:42:06.048Z,2.70
2018-08-10T23:44:34.460Z,3.60
2018-08-10T23:47:03.104Z,3.07
2018-08-10T23:49:41.938Z,3.40
2018-08-10T23:52:10.458Z,3.30
2018-08-10T23:54:38.891Z,3.33
2018-08-10T23:57:07.531Z,3.67
2018-08-10T23:59:36.378Z,3.37
